Terminal Aerodrome Forecast
Issued by NWS

Home | Current Version | Previous Version | Text Only | Print | Product List | Glossary On
Versions: 1 2 3 4 5 6 7 8 9 10 11 12 13 14 15 16 17 18 19 20 21 22 23 24 25 26 27 28 29 30 31 32 33 34
000
FTUS43 KAPX 220525
TAFPLN
TAF
KPLN 220525Z 2206/2306 32012G20KT P6SM VCSH BKN011
     FM221100 34014G23KT P6SM VCSH BKN050
     FM221300 34015G24KT P6SM BKN100
     FM221700 34016G24KT P6SM SCT025=

USA.gov is the U.S. government's official web portal to all federal, state and local government web resources and services.